sensor_id;sensor_type;location;lat;lon;timestamp;P1;durP1;ratioP1;P2;durP2;ratioP2
25936;SDS011;13733;51.178;4.450;2023-11-21T00:00:31;33.75;;;23.30;;
25936;SDS011;13733;51.178;4.450;2023-11-21T00:02:57;35.97;;;24.15;;
25936;SDS011;13733;51.178;4.450;2023-11-21T00:05:22;37.15;;;23.70;;
25936;SDS011;13733;51.178;4.450;2023-11-21T00:07:48;36.60;;;24.88;;
25936;SDS011;13733;51.178;4.450;2023-11-21T00:10:14;35.38;;;24.85;;
25936;SDS011;13733;51.178;4.450;2023-11-21T00:12:42;42.42;;;27.20;;
25936;SDS011;13733;51.178;4.450;2023-11-21T00:15:08;40.92;;;26.58;;
25936;SDS011;13733;51.178;4.450;2023-11-21T00:17:36;38.63;;;25.20;;
25936;SDS011;13733;51.178;4.450;2023-11-21T00:20:02;38.08;;;24.90;;
25936;SDS011;13733;51.178;4.450;2023-11-21T00:22:32;37.35;;;25.60;;
25936;SDS011;13733;51.178;4.450;2023-11-21T00:24:58;41.95;;;25.48;;
25936;SDS011;13733;51.178;4.450;2023-11-21T00:27:24;40.78;;;25.60;;
25936;SDS011;13733;51.178;4.450;2023-11-21T00:29:50;38.67;;;25.65;;
25936;SDS011;13733;51.178;4.450;2023-11-21T00:32:16;42.13;;;26.15;;
25936;SDS011;13733;51.178;4.450;2023-11-21T00:34:42;43.63;;;27.83;;
25936;SDS011;13733;51.178;4.450;2023-11-21T00:37:08;45.17;;;28.27;;
25936;SDS011;13733;51.178;4.450;2023-11-21T00:39:33;40.38;;;28.02;;
25936;SDS011;13733;51.178;4.450;2023-11-21T00:42:00;43.45;;;27.65;;
25936;SDS011;13733;51.178;4.450;2023-11-21T00:44:26;39.67;;;26.17;;
25936;SDS011;13733;51.178;4.450;2023-11-21T00:46:51;47.85;;;28.00;;
25936;SDS011;13733;51.178;4.450;2023-11-21T00:49:17;48.65;;;30.20;;
25936;SDS011;13733;51.178;4.450;2023-11-21T00:51:43;45.63;;;28.00;;
25936;SDS011;13733;51.178;4.450;2023-11-21T00:54:09;42.08;;;28.27;;
25936;SDS011;13733;51.178;4.450;2023-11-21T00:56:34;43.42;;;27.85;;
25936;SDS011;13733;51.178;4.450;2023-11-21T00:59:00;43.95;;;28.65;;
25936;SDS011;13733;51.178;4.450;2023-11-21T01:01:26;41.22;;;27.80;;
25936;SDS011;13733;51.178;4.450;2023-11-21T01:03:51;51.30;;;30.27;;
25936;SDS011;13733;51.178;4.450;2023-11-21T01:06:18;49.90;;;30.45;;
25936;SDS011;13733;51.178;4.450;2023-11-21T01:08:44;43.78;;;28.60;;
25936;SDS011;13733;51.178;4.450;2023-11-21T01:11:11;45.33;;;29.75;;
25936;SDS011;13733;51.178;4.450;2023-11-21T01:13:40;50.70;;;31.25;;
25936;SDS011;13733;51.178;4.450;2023-11-21T01:16:07;48.65;;;29.65;;
25936;SDS011;13733;51.178;4.450;2023-11-21T01:18:34;53.60;;;31.08;;
25936;SDS011;13733;51.178;4.450;2023-11-21T01:21:01;50.08;;;30.30;;
25936;SDS011;13733;51.178;4.450;2023-11-21T01:23:28;51.97;;;30.95;;
25936;SDS011;13733;51.178;4.450;2023-11-21T01:25:55;44.42;;;29.33;;
25936;SDS011;13733;51.178;4.450;2023-11-21T01:28:22;49.88;;;30.90;;
25936;SDS011;13733;51.178;4.450;2023-11-21T01:30:48;47.28;;;30.77;;
25936;SDS011;13733;51.178;4.450;2023-11-21T01:33:14;45.63;;;29.30;;
25936;SDS011;13733;51.178;4.450;2023-11-21T01:35:41;48.38;;;29.73;;
25936;SDS011;13733;51.178;4.450;2023-11-21T01:38:07;49.47;;;31.17;;
25936;SDS011;13733;51.178;4.450;2023-11-21T01:40:34;42.92;;;29.13;;
25936;SDS011;13733;51.178;4.450;2023-11-21T01:43:00;44.50;;;29.75;;
25936;SDS011;13733;51.178;4.450;2023-11-21T01:45:28;55.00;;;31.77;;
25936;SDS011;13733;51.178;4.450;2023-11-21T01:47:56;50.03;;;32.67;;
25936;SDS011;13733;51.178;4.450;2023-11-21T01:50:23;53.08;;;32.03;;
25936;SDS011;13733;51.178;4.450;2023-11-21T01:52:50;55.80;;;33.10;;
25936;SDS011;13733;51.178;4.450;2023-11-21T01:55:16;50.38;;;32.80;;
25936;SDS011;13733;51.178;4.450;2023-11-21T01:57:46;59.08;;;35.13;;
25936;SDS011;13733;51.178;4.450;2023-11-21T02:00:12;56.95;;;33.97;;
25936;SDS011;13733;51.178;4.450;2023-11-21T02:02:44;48.95;;;32.13;;
25936;SDS011;13733;51.178;4.450;2023-11-21T02:05:12;49.88;;;32.20;;
25936;SDS011;13733;51.178;4.450;2023-11-21T02:07:44;43.30;;;29.83;;
25936;SDS011;13733;51.178;4.450;2023-11-21T02:10:14;44.50;;;28.00;;
25936;SDS011;13733;51.178;4.450;2023-11-21T02:12:41;43.95;;;28.27;;
25936;SDS011;13733;51.178;4.450;2023-11-21T02:15:08;49.90;;;30.00;;
25936;SDS011;13733;51.178;4.450;2023-11-21T02:17:43;45.67;;;29.20;;
25936;SDS011;13733;51.178;4.450;2023-11-21T02:20:10;47.70;;;29.02;;
25936;SDS011;13733;51.178;4.450;2023-11-21T02:22:41;41.95;;;29.27;;
25936;SDS011;13733;51.178;4.450;2023-11-21T02:25:09;42.35;;;28.25;;
25936;SDS011;13733;51.178;4.450;2023-11-21T02:27:35;45.58;;;28.73;;
25936;SDS011;13733;51.178;4.450;2023-11-21T02:30:01;47.40;;;30.23;;
25936;SDS011;13733;51.178;4.450;2023-11-21T02:32:29;39.88;;;27.25;;
25936;SDS011;13733;51.178;4.450;2023-11-21T02:34:57;47.05;;;28.08;;
25936;SDS011;13733;51.178;4.450;2023-11-21T02:37:26;38.33;;;26.92;;
25936;SDS011;13733;51.178;4.450;2023-11-21T02:39:52;44.47;;;27.67;;
25936;SDS011;13733;51.178;4.450;2023-11-21T02:42:18;47.20;;;28.55;;
25936;SDS011;13733;51.178;4.450;2023-11-21T02:44:44;41.05;;;27.88;;
25936;SDS011;13733;51.178;4.450;2023-11-21T02:47:10;40.63;;;26.83;;
25936;SDS011;13733;51.178;4.450;2023-11-21T02:49:35;42.78;;;26.35;;
25936;SDS011;13733;51.178;4.450;2023-11-21T02:52:01;42.42;;;26.13;;
25936;SDS011;13733;51.178;4.450;2023-11-21T02:54:27;39.60;;;25.98;;
25936;SDS011;13733;51.178;4.450;2023-11-21T02:56:53;40.50;;;26.88;;
25936;SDS011;13733;51.178;4.450;2023-11-21T02:59:20;42.85;;;27.75;;
25936;SDS011;13733;51.178;4.450;2023-11-21T03:01:45;47.50;;;25.95;;
25936;SDS011;13733;51.178;4.450;2023-11-21T03:04:11;40.75;;;26.35;;
25936;SDS011;13733;51.178;4.450;2023-11-21T03:06:43;43.63;;;27.25;;
25936;SDS011;13733;51.178;4.450;2023-11-21T03:09:10;38.20;;;25.77;;
25936;SDS011;13733;51.178;4.450;2023-11-21T03:11:37;40.85;;;25.70;;
25936;SDS011;13733;51.178;4.450;2023-11-21T03:14:03;38.63;;;25.67;;
25936;SDS011;13733;51.178;4.450;2023-11-21T03:16:31;46.10;;;24.98;;
25936;SDS011;13733;51.178;4.450;2023-11-21T03:18:57;40.42;;;26.05;;
25936;SDS011;13733;51.178;4.450;2023-11-21T03:21:24;41.55;;;25.95;;
25936;SDS011;13733;51.178;4.450;2023-11-21T03:23:51;41.22;;;25.80;;
25936;SDS011;13733;51.178;4.450;2023-11-21T03:26:17;39.90;;;26.75;;
25936;SDS011;13733;51.178;4.450;2023-11-21T03:28:43;39.25;;;25.52;;
25936;SDS011;13733;51.178;4.450;2023-11-21T03:31:09;41.47;;;26.13;;
25936;SDS011;13733;51.178;4.450;2023-11-21T03:33:35;43.65;;;26.70;;
25936;SDS011;13733;51.178;4.450;2023-11-21T03:36:01;44.65;;;26.02;;
25936;SDS011;13733;51.178;4.450;2023-11-21T03:38:29;45.70;;;26.27;;
25936;SDS011;13733;51.178;4.450;2023-11-21T03:40:55;38.78;;;25.92;;
25936;SDS011;13733;51.178;4.450;2023-11-21T03:43:21;43.15;;;26.85;;
25936;SDS011;13733;51.178;4.450;2023-11-21T03:45:47;37.22;;;25.38;;
25936;SDS011;13733;51.178;4.450;2023-11-21T03:48:13;39.40;;;24.85;;
25936;SDS011;13733;51.178;4.450;2023-11-21T03:50:39;38.47;;;25.05;;
25936;SDS011;13733;51.178;4.450;2023-11-21T03:53:06;37.05;;;23.98;;
25936;SDS011;13733;51.178;4.450;2023-11-21T03:55:32;44.92;;;26.75;;
25936;SDS011;13733;51.178;4.450;2023-11-21T03:57:59;38.00;;;26.13;;
25936;SDS011;13733;51.178;4.450;2023-11-21T04:00:25;40.00;;;25.20;;
25936;SDS011;13733;51.178;4.450;2023-11-21T04:02:53;42.53;;;25.90;;
25936;SDS011;13733;51.178;4.450;2023-11-21T04:05:19;47.10;;;25.98;;
25936;SDS011;13733;51.178;4.450;2023-11-21T04:07:49;40.38;;;24.88;;
25936;SDS011;13733;51.178;4.450;2023-11-21T04:10:16;42.30;;;25.95;;
25936;SDS011;13733;51.178;4.450;2023-11-21T04:12:42;38.13;;;24.92;;
25936;SDS011;13733;51.178;4.450;2023-11-21T04:15:08;35.50;;;24.60;;
25936;SDS011;13733;51.178;4.450;2023-11-21T04:17:34;34.80;;;23.92;;
25936;SDS011;13733;51.178;4.450;2023-11-21T04:20:02;37.88;;;24.50;;
25936;SDS011;13733;51.178;4.450;2023-11-21T04:22:33;44.97;;;27.73;;
25936;SDS011;13733;51.178;4.450;2023-11-21T04:25:04;39.00;;;24.83;;
25936;SDS011;13733;51.178;4.450;2023-11-21T04:27:30;38.88;;;25.73;;
25936;SDS011;13733;51.178;4.450;2023-11-21T04:29:55;36.78;;;24.10;;
25936;SDS011;13733;51.178;4.450;2023-11-21T04:32:21;43.67;;;25.33;;
25936;SDS011;13733;51.178;4.450;2023-11-21T04:34:47;53.25;;;31.17;;
25936;SDS011;13733;51.178;4.450;2023-11-21T04:37:13;36.60;;;24.02;;
25936;SDS011;13733;51.178;4.450;2023-11-21T04:39:38;46.53;;;28.83;;
25936;SDS011;13733;51.178;4.450;2023-11-21T04:42:04;48.58;;;30.60;;
25936;SDS011;13733;51.178;4.450;2023-11-21T04:44:31;41.50;;;27.48;;
25936;SDS011;13733;51.178;4.450;2023-11-21T04:46:57;46.55;;;34.28;;
25936;SDS011;13733;51.178;4.450;2023-11-21T04:49:23;50.17;;;33.38;;
25936;SDS011;13733;51.178;4.450;2023-11-21T04:51:48;48.88;;;34.33;;
25936;SDS011;13733;51.178;4.450;2023-11-21T04:54:14;45.70;;;28.35;;
25936;SDS011;13733;51.178;4.450;2023-11-21T04:56:41;50.40;;;29.15;;
25936;SDS011;13733;51.178;4.450;2023-11-21T04:59:07;46.00;;;26.38;;
25936;SDS011;13733;51.178;4.450;2023-11-21T05:01:33;44.15;;;25.70;;
25936;SDS011;13733;51.178;4.450;2023-11-21T05:03:59;37.15;;;24.80;;
25936;SDS011;13733;51.178;4.450;2023-11-21T05:06:24;37.58;;;24.83;;
25936;SDS011;13733;51.178;4.450;2023-11-21T05:08:50;42.45;;;24.38;;
25936;SDS011;13733;51.178;4.450;2023-11-21T05:11:28;34.72;;;23.55;;
25936;SDS011;13733;51.178;4.450;2023-11-21T05:13:54;43.95;;;24.98;;
25936;SDS011;13733;51.178;4.450;2023-11-21T05:16:25;42.78;;;25.08;;
25936;SDS011;13733;51.178;4.450;2023-11-21T05:18:52;36.60;;;22.58;;
25936;SDS011;13733;51.178;4.450;2023-11-21T05:21:18;36.50;;;22.83;;
25936;SDS011;13733;51.178;4.450;2023-11-21T05:23:46;34.47;;;23.30;;
25936;SDS011;13733;51.178;4.450;2023-11-21T05:26:11;32.50;;;22.05;;
25936;SDS011;13733;51.178;4.450;2023-11-21T05:28:38;33.50;;;22.17;;
25936;SDS011;13733;51.178;4.450;2023-11-21T05:31:04;33.28;;;22.42;;
25936;SDS011;13733;51.178;4.450;2023-11-21T05:33:30;38.00;;;23.10;;
25936;SDS011;13733;51.178;4.450;2023-11-21T05:35:55;35.28;;;22.42;;
25936;SDS011;13733;51.178;4.450;2023-11-21T05:38:21;41.75;;;24.58;;
25936;SDS011;13733;51.178;4.450;2023-11-21T05:40:47;35.75;;;23.08;;
25936;SDS011;13733;51.178;4.450;2023-11-21T05:43:13;36.60;;;23.25;;
25936;SDS011;13733;51.178;4.450;2023-11-21T05:45:40;40.00;;;23.00;;
25936;SDS011;13733;51.178;4.450;2023-11-21T05:48:06;39.40;;;24.38;;
25936;SDS011;13733;51.178;4.450;2023-11-21T05:50:32;39.22;;;22.17;;
25936;SDS011;13733;51.178;4.450;2023-11-21T05:52:57;40.30;;;23.63;;
25936;SDS011;13733;51.178;4.450;2023-11-21T05:55:25;39.88;;;23.77;;
25936;SDS011;13733;51.178;4.450;2023-11-21T05:57:51;40.45;;;24.48;;
25936;SDS011;13733;51.178;4.450;2023-11-21T06:00:17;39.78;;;23.73;;
25936;SDS011;13733;51.178;4.450;2023-11-21T06:02:50;38.03;;;23.83;;
25936;SDS011;13733;51.178;4.450;2023-11-21T06:05:24;42.67;;;23.55;;
25936;SDS011;13733;51.178;4.450;2023-11-21T06:07:51;41.17;;;24.48;;
25936;SDS011;13733;51.178;4.450;2023-11-21T06:10:24;37.70;;;22.50;;
25936;SDS011;13733;51.178;4.450;2023-11-21T06:12:50;45.50;;;23.35;;
25936;SDS011;13733;51.178;4.450;2023-11-21T06:15:15;39.42;;;22.52;;
25936;SDS011;13733;51.178;4.450;2023-11-21T06:17:44;39.00;;;23.77;;
25936;SDS011;13733;51.178;4.450;2023-11-21T06:20:14;43.97;;;25.33;;
25936;SDS011;13733;51.178;4.450;2023-11-21T06:22:43;45.22;;;24.48;;
25936;SDS011;13733;51.178;4.450;2023-11-21T06:25:13;42.20;;;24.92;;
25936;SDS011;13733;51.178;4.450;2023-11-21T06:27:40;44.88;;;25.13;;
25936;SDS011;13733;51.178;4.450;2023-11-21T06:30:07;48.60;;;26.38;;
25936;SDS011;13733;51.178;4.450;2023-11-21T06:32:34;41.65;;;24.10;;
25936;SDS011;13733;51.178;4.450;2023-11-21T06:35:02;38.97;;;25.15;;
25936;SDS011;13733;51.178;4.450;2023-11-21T06:37:29;43.30;;;23.05;;
25936;SDS011;13733;51.178;4.450;2023-11-21T06:39:56;39.85;;;23.40;;
25936;SDS011;13733;51.178;4.450;2023-11-21T06:42:23;38.13;;;24.08;;
25936;SDS011;13733;51.178;4.450;2023-11-21T06:44:49;40.17;;;23.80;;
25936;SDS011;13733;51.178;4.450;2023-11-21T06:47:25;43.78;;;25.90;;
25936;SDS011;13733;51.178;4.450;2023-11-21T06:49:51;51.55;;;28.90;;
25936;SDS011;13733;51.178;4.450;2023-11-21T06:52:18;49.63;;;27.38;;
25936;SDS011;13733;51.178;4.450;2023-11-21T06:54:44;56.95;;;30.15;;
25936;SDS011;13733;51.178;4.450;2023-11-21T06:57:10;62.45;;;30.88;;
25936;SDS011;13733;51.178;4.450;2023-11-21T06:59:36;69.60;;;32.50;;
25936;SDS011;13733;51.178;4.450;2023-11-21T07:02:02;62.53;;;31.85;;
25936;SDS011;13733;51.178;4.450;2023-11-21T07:04:29;61.30;;;30.80;;
25936;SDS011;13733;51.178;4.450;2023-11-21T07:06:55;54.50;;;30.35;;
25936;SDS011;13733;51.178;4.450;2023-11-21T07:09:21;57.25;;;32.08;;
25936;SDS011;13733;51.178;4.450;2023-11-21T07:11:50;65.13;;;31.75;;
25936;SDS011;13733;51.178;4.450;2023-11-21T07:14:16;69.30;;;35.38;;
25936;SDS011;13733;51.178;4.450;2023-11-21T07:16:44;62.42;;;32.88;;
25936;SDS011;13733;51.178;4.450;2023-11-21T07:19:10;68.00;;;32.80;;
25936;SDS011;13733;51.178;4.450;2023-11-21T07:21:37;60.63;;;30.40;;
25936;SDS011;13733;51.178;4.450;2023-11-21T07:24:04;59.25;;;30.75;;
25936;SDS011;13733;51.178;4.450;2023-11-21T07:26:32;66.65;;;32.55;;
25936;SDS011;13733;51.178;4.450;2023-11-21T07:28:59;63.35;;;31.27;;
25936;SDS011;13733;51.178;4.450;2023-11-21T07:31:25;55.08;;;30.63;;
25936;SDS011;13733;51.178;4.450;2023-11-21T07:33:51;61.40;;;30.30;;
25936;SDS011;13733;51.178;4.450;2023-11-21T07:36:17;51.83;;;29.30;;
25936;SDS011;13733;51.178;4.450;2023-11-21T07:38:44;57.00;;;27.83;;
25936;SDS011;13733;51.178;4.450;2023-11-21T07:41:10;55.72;;;28.92;;
25936;SDS011;13733;51.178;4.450;2023-11-21T07:43:36;55.72;;;29.80;;
25936;SDS011;13733;51.178;4.450;2023-11-21T07:46:03;61.33;;;30.55;;
25936;SDS011;13733;51.178;4.450;2023-11-21T07:48:29;53.83;;;28.13;;
25936;SDS011;13733;51.178;4.450;2023-11-21T07:50:56;57.75;;;30.27;;
25936;SDS011;13733;51.178;4.450;2023-11-21T07:53:25;56.33;;;27.25;;
25936;SDS011;13733;51.178;4.450;2023-11-21T07:55:54;43.92;;;26.17;;
25936;SDS011;13733;51.178;4.450;2023-11-21T07:58:20;48.90;;;26.95;;
25936;SDS011;13733;51.178;4.450;2023-11-21T08:00:45;51.97;;;25.35;;
25936;SDS011;13733;51.178;4.450;2023-11-21T08:03:13;44.85;;;24.75;;
25936;SDS011;13733;51.178;4.450;2023-11-21T08:05:39;38.47;;;25.20;;
25936;SDS011;13733;51.178;4.450;2023-11-21T08:08:05;48.42;;;25.63;;
25936;SDS011;13733;51.178;4.450;2023-11-21T08:10:30;47.70;;;25.08;;
25936;SDS011;13733;51.178;4.450;2023-11-21T08:12:56;47.00;;;24.88;;
25936;SDS011;13733;51.178;4.450;2023-11-21T08:15:22;52.22;;;26.45;;
25936;SDS011;13733;51.178;4.450;2023-11-21T08:17:47;41.88;;;25.25;;
25936;SDS011;13733;51.178;4.450;2023-11-21T08:20:13;42.88;;;23.65;;
25936;SDS011;13733;51.178;4.450;2023-11-21T08:22:45;41.90;;;24.00;;
25936;SDS011;13733;51.178;4.450;2023-11-21T08:25:13;39.67;;;23.13;;
25936;SDS011;13733;51.178;4.450;2023-11-21T08:27:39;39.95;;;23.33;;
25936;SDS011;13733;51.178;4.450;2023-11-21T08:30:05;40.78;;;22.83;;
25936;SDS011;13733;51.178;4.450;2023-11-21T08:32:31;36.47;;;22.85;;
25936;SDS011;13733;51.178;4.450;2023-11-21T08:35:01;43.35;;;23.60;;
25936;SDS011;13733;51.178;4.450;2023-11-21T08:37:27;44.03;;;23.75;;
25936;SDS011;13733;51.178;4.450;2023-11-21T08:39:57;45.20;;;25.00;;
25936;SDS011;13733;51.178;4.450;2023-11-21T08:42:25;42.10;;;24.27;;
25936;SDS011;13733;51.178;4.450;2023-11-21T08:44:55;52.78;;;25.65;;
25936;SDS011;13733;51.178;4.450;2023-11-21T08:47:23;55.05;;;27.83;;
25936;SDS011;13733;51.178;4.450;2023-11-21T08:49:50;44.15;;;24.63;;
25936;SDS011;13733;51.178;4.450;2023-11-21T08:52:18;42.33;;;24.80;;
25936;SDS011;13733;51.178;4.450;2023-11-21T08:54:50;46.13;;;25.73;;
25936;SDS011;13733;51.178;4.450;2023-11-21T08:57:24;37.97;;;25.02;;
25936;SDS011;13733;51.178;4.450;2023-11-21T08:59:50;43.92;;;25.88;;
25936;SDS011;13733;51.178;4.450;2023-11-21T09:04:51;42.95;;;25.67;;
25936;SDS011;13733;51.178;4.450;2023-11-21T09:07:18;43.97;;;26.23;;
25936;SDS011;13733;51.178;4.450;2023-11-21T09:09:48;44.80;;;26.58;;
25936;SDS011;13733;51.178;4.450;2023-11-21T09:12:14;46.60;;;27.45;;
25936;SDS011;13733;51.178;4.450;2023-11-21T09:14:42;48.17;;;28.42;;
25936;SDS011;13733;51.178;4.450;2023-11-21T09:17:12;55.20;;;29.23;;
25936;SDS011;13733;51.178;4.450;2023-11-21T09:19:38;52.53;;;28.55;;
25936;SDS011;13733;51.178;4.450;2023-11-21T09:22:04;46.90;;;27.15;;
25936;SDS011;13733;51.178;4.450;2023-11-21T09:24:33;31.98;;;20.80;;
25936;SDS011;13733;51.178;4.450;2023-11-21T09:26:59;28.88;;;19.02;;
25936;SDS011;13733;51.178;4.450;2023-11-21T09:29:28;31.83;;;21.10;;
25936;SDS011;13733;51.178;4.450;2023-11-21T09:31:54;26.85;;;17.65;;
25936;SDS011;13733;51.178;4.450;2023-11-21T09:34:21;24.55;;;16.52;;
25936;SDS011;13733;51.178;4.450;2023-11-21T09:36:47;23.63;;;14.65;;
25936;SDS011;13733;51.178;4.450;2023-11-21T09:39:13;22.80;;;15.60;;
25936;SDS011;13733;51.178;4.450;2023-11-21T09:44:13;23.98;;;13.70;;
25936;SDS011;13733;51.178;4.450;2023-11-21T09:46:42;26.33;;;14.63;;
25936;SDS011;13733;51.178;4.450;2023-11-21T09:49:09;24.52;;;14.27;;
25936;SDS011;13733;51.178;4.450;2023-11-21T09:51:44;26.17;;;14.63;;
25936;SDS011;13733;51.178;4.450;2023-11-21T09:54:12;27.00;;;14.85;;
25936;SDS011;13733;51.178;4.450;2023-11-21T09:56:42;25.90;;;15.27;;
25936;SDS011;13733;51.178;4.450;2023-11-21T09:59:10;27.98;;;15.77;;
25936;SDS011;13733;51.178;4.450;2023-11-21T10:01:40;28.17;;;15.32;;
25936;SDS011;13733;51.178;4.450;2023-11-21T10:04:07;27.60;;;15.60;;
25936;SDS011;13733;51.178;4.450;2023-11-21T10:06:40;24.90;;;14.70;;
25936;SDS011;13733;51.178;4.450;2023-11-21T10:09:13;24.33;;;14.70;;
25936;SDS011;13733;51.178;4.450;2023-11-21T10:11:41;23.13;;;14.00;;
25936;SDS011;13733;51.178;4.450;2023-11-21T10:14:11;22.33;;;13.82;;
25936;SDS011;13733;51.178;4.450;2023-11-21T10:16:38;23.30;;;13.57;;
25936;SDS011;13733;51.178;4.450;2023-11-21T10:19:06;18.65;;;12.50;;
25936;SDS011;13733;51.178;4.450;2023-11-21T10:21:41;20.90;;;12.43;;
25936;SDS011;13733;51.178;4.450;2023-11-21T10:24:07;18.40;;;11.13;;
25936;SDS011;13733;51.178;4.450;2023-11-21T10:26:33;23.05;;;11.80;;
25936;SDS011;13733;51.178;4.450;2023-11-21T10:29:01;15.18;;;10.48;;
25936;SDS011;13733;51.178;4.450;2023-11-21T10:31:32;22.10;;;11.05;;
25936;SDS011;13733;51.178;4.450;2023-11-21T10:36:40;16.27;;;9.48;;
25936;SDS011;13733;51.178;4.450;2023-11-21T10:39:06;15.60;;;8.63;;
25936;SDS011;13733;51.178;4.450;2023-11-21T10:41:33;11.93;;;7.57;;
25936;SDS011;13733;51.178;4.450;2023-11-21T10:44:00;12.07;;;8.15;;
25936;SDS011;13733;51.178;4.450;2023-11-21T10:46:32;18.33;;;7.97;;
25936;SDS011;13733;51.178;4.450;2023-11-21T10:48:59;10.57;;;7.07;;
25936;SDS011;13733;51.178;4.450;2023-11-21T10:51:25;9.07;;;6.80;;
25936;SDS011;13733;51.178;4.450;2023-11-21T10:53:51;8.98;;;6.03;;
25936;SDS011;13733;51.178;4.450;2023-11-21T10:56:17;7.93;;;5.97;;
25936;SDS011;13733;51.178;4.450;2023-11-21T10:58:47;10.52;;;6.20;;
25936;SDS011;13733;51.178;4.450;2023-11-21T11:01:14;10.98;;;6.25;;
25936;SDS011;13733;51.178;4.450;2023-11-21T11:03:44;8.70;;;6.55;;
25936;SDS011;13733;51.178;4.450;2023-11-21T11:06:10;8.30;;;5.47;;
25936;SDS011;13733;51.178;4.450;2023-11-21T11:08:38;7.55;;;5.68;;
25936;SDS011;13733;51.178;4.450;2023-11-21T11:11:05;7.47;;;5.13;;
25936;SDS011;13733;51.178;4.450;2023-11-21T11:13:31;9.40;;;5.47;;
25936;SDS011;13733;51.178;4.450;2023-11-21T11:15:58;6.78;;;5.57;;
25936;SDS011;13733;51.178;4.450;2023-11-21T11:18:29;8.50;;;5.60;;
25936;SDS011;13733;51.178;4.450;2023-11-21T11:20:57;6.35;;;5.43;;
25936;SDS011;13733;51.178;4.450;2023-11-21T11:29:49;7.93;;;4.65;;
25936;SDS011;13733;51.178;4.450;2023-11-21T11:32:34;6.78;;;4.57;;
25936;SDS011;13733;51.178;4.450;2023-11-21T11:35:34;8.68;;;4.40;;
25936;SDS011;13733;51.178;4.450;2023-11-21T11:38:12;11.35;;;4.40;;
25936;SDS011;13733;51.178;4.450;2023-11-21T11:40:45;12.82;;;4.57;;
25936;SDS011;13733;51.178;4.450;2023-11-21T11:43:12;9.93;;;4.45;;
25936;SDS011;13733;51.178;4.450;2023-11-21T11:45:37;6.30;;;3.83;;
25936;SDS011;13733;51.178;4.450;2023-11-21T11:48:08;9.32;;;5.45;;
25936;SDS011;13733;51.178;4.450;2023-11-21T11:50:41;9.18;;;5.25;;
25936;SDS011;13733;51.178;4.450;2023-11-21T11:53:28;9.88;;;6.80;;
25936;SDS011;13733;51.178;4.450;2023-11-21T11:59:03;10.73;;;6.82;;
25936;SDS011;13733;51.178;4.450;2023-11-21T12:01:31;12.35;;;7.00;;
25936;SDS011;13733;51.178;4.450;2023-11-21T12:06:42;13.75;;;7.03;;
25936;SDS011;13733;51.178;4.450;2023-11-21T12:09:21;10.35;;;6.85;;
25936;SDS011;13733;51.178;4.450;2023-11-21T12:11:49;13.00;;;6.13;;
25936;SDS011;13733;51.178;4.450;2023-11-21T12:14:15;9.95;;;5.82;;
25936;SDS011;13733;51.178;4.450;2023-11-21T12:16:41;10.25;;;5.95;;
25936;SDS011;13733;51.178;4.450;2023-11-21T12:19:11;11.48;;;5.80;;
25936;SDS011;13733;51.178;4.450;2023-11-21T12:21:37;11.27;;;5.50;;
25936;SDS011;13733;51.178;4.450;2023-11-21T12:24:06;7.53;;;5.00;;
25936;SDS011;13733;51.178;4.450;2023-11-21T12:26:34;7.13;;;4.30;;
25936;SDS011;13733;51.178;4.450;2023-11-21T12:29:01;9.55;;;5.00;;
25936;SDS011;13733;51.178;4.450;2023-11-21T12:31:29;5.57;;;4.60;;
25936;SDS011;13733;51.178;4.450;2023-11-21T12:33:56;9.25;;;4.53;;
25936;SDS011;13733;51.178;4.450;2023-11-21T12:36:22;7.53;;;5.40;;
25936;SDS011;13733;51.178;4.450;2023-11-21T12:38:49;10.07;;;5.78;;
25936;SDS011;13733;51.178;4.450;2023-11-21T12:41:15;12.77;;;5.95;;
25936;SDS011;13733;51.178;4.450;2023-11-21T12:43:42;11.00;;;5.65;;
25936;SDS011;13733;51.178;4.450;2023-11-21T12:46:09;6.93;;;5.20;;
25936;SDS011;13733;51.178;4.450;2023-11-21T12:48:39;4.80;;;4.30;;
25936;SDS011;13733;51.178;4.450;2023-11-21T12:51:11;8.65;;;4.55;;
25936;SDS011;13733;51.178;4.450;2023-11-21T12:53:39;7.43;;;4.30;;
25936;SDS011;13733;51.178;4.450;2023-11-21T12:56:12;8.68;;;4.95;;
25936;SDS011;13733;51.178;4.450;2023-11-21T12:58:38;6.32;;;4.07;;
25936;SDS011;13733;51.178;4.450;2023-11-21T13:01:06;6.60;;;4.18;;
25936;SDS011;13733;51.178;4.450;2023-11-21T13:03:39;6.55;;;4.43;;
25936;SDS011;13733;51.178;4.450;2023-11-21T13:06:07;6.32;;;3.83;;
25936;SDS011;13733;51.178;4.450;2023-11-21T13:08:33;6.07;;;4.50;;
25936;SDS011;13733;51.178;4.450;2023-11-21T13:10:59;5.68;;;4.22;;
25936;SDS011;13733;51.178;4.450;2023-11-21T13:13:27;5.88;;;4.05;;
25936;SDS011;13733;51.178;4.450;2023-11-21T13:15:54;6.72;;;4.15;;
25936;SDS011;13733;51.178;4.450;2023-11-21T13:18:21;7.47;;;3.90;;
25936;SDS011;13733;51.178;4.450;2023-11-21T13:20:48;6.47;;;4.10;;
25936;SDS011;13733;51.178;4.450;2023-11-21T13:23:15;6.30;;;4.32;;
25936;SDS011;13733;51.178;4.450;2023-11-21T13:25:43;7.40;;;4.10;;
25936;SDS011;13733;51.178;4.450;2023-11-21T13:28:11;5.03;;;4.07;;
25936;SDS011;13733;51.178;4.450;2023-11-21T13:30:37;4.82;;;4.10;;
25936;SDS011;13733;51.178;4.450;2023-11-21T13:33:05;5.88;;;4.25;;
25936;SDS011;13733;51.178;4.450;2023-11-21T13:35:33;7.50;;;4.53;;
25936;SDS011;13733;51.178;4.450;2023-11-21T13:38:06;11.18;;;4.72;;
25936;SDS011;13733;51.178;4.450;2023-11-21T13:40:33;5.38;;;4.13;;
25936;SDS011;13733;51.178;4.450;2023-11-21T13:43:02;5.85;;;4.10;;
25936;SDS011;13733;51.178;4.450;2023-11-21T13:45:30;7.03;;;4.60;;
25936;SDS011;13733;51.178;4.450;2023-11-21T13:47:56;7.05;;;4.68;;
25936;SDS011;13733;51.178;4.450;2023-11-21T13:50:24;7.07;;;4.35;;
25936;SDS011;13733;51.178;4.450;2023-11-21T13:52:57;5.15;;;4.47;;
25936;SDS011;13733;51.178;4.450;2023-11-21T13:55:28;7.22;;;4.80;;
25936;SDS011;13733;51.178;4.450;2023-11-21T13:57:54;6.68;;;5.05;;
25936;SDS011;13733;51.178;4.450;2023-11-21T14:00:20;6.70;;;4.60;;
25936;SDS011;13733;51.178;4.450;2023-11-21T14:03:05;6.75;;;5.20;;
25936;SDS011;13733;51.178;4.450;2023-11-21T14:05:36;7.55;;;5.65;;
25936;SDS011;13733;51.178;4.450;2023-11-21T14:08:01;8.20;;;5.50;;
25936;SDS011;13733;51.178;4.450;2023-11-21T14:10:29;6.70;;;5.30;;
25936;SDS011;13733;51.178;4.450;2023-11-21T14:13:05;10.02;;;6.28;;
25936;SDS011;13733;51.178;4.450;2023-11-21T14:15:31;10.05;;;7.03;;
25936;SDS011;13733;51.178;4.450;2023-11-21T14:18:02;9.52;;;6.32;;
25936;SDS011;13733;51.178;4.450;2023-11-21T14:22:58;9.00;;;6.65;;
25936;SDS011;13733;51.178;4.450;2023-11-21T14:25:24;8.32;;;5.97;;
25936;SDS011;13733;51.178;4.450;2023-11-21T14:27:50;8.00;;;5.70;;
25936;SDS011;13733;51.178;4.450;2023-11-21T14:30:16;10.30;;;6.53;;
25936;SDS011;13733;51.178;4.450;2023-11-21T14:32:44;10.13;;;7.20;;
25936;SDS011;13733;51.178;4.450;2023-11-21T14:35:10;10.15;;;6.80;;
25936;SDS011;13733;51.178;4.450;2023-11-21T14:37:35;8.80;;;6.50;;
25936;SDS011;13733;51.178;4.450;2023-11-21T14:40:01;7.88;;;6.30;;
25936;SDS011;13733;51.178;4.450;2023-11-21T14:42:29;9.73;;;6.78;;
25936;SDS011;13733;51.178;4.450;2023-11-21T14:44:55;11.00;;;6.93;;
25936;SDS011;13733;51.178;4.450;2023-11-21T14:47:25;11.23;;;7.03;;
25936;SDS011;13733;51.178;4.450;2023-11-21T14:49:54;8.57;;;6.53;;
25936;SDS011;13733;51.178;4.450;2023-11-21T14:52:28;8.88;;;6.07;;